Time;durP1;ratioP1;P1;durP2;ratioP2;P2;SDS_P1;SDS_P2;PMS_P1;PMS_P2;Temp;Humidity;BMP_temperature;BMP_pressure;BME280_temperature;BME280_humidity;BME280_pressure;Samples;Min_cycle;Max_cycle;Signal;HPM_P1;HPM_P2
2023/07/11 00:02:16;;;;;;;7.65;2.88;;;;;;;;;;5031148;28;20044;-70
2023/07/11 00:04:42;;;;;;;11.32;2.90;;;;;;;;;;5035244;28;20077;-70
2023/07/11 00:07:09;;;;;;;6.55;2.60;;;;;;;;;;5050804;28;20520;-70
2023/07/11 00:09:35;;;;;;;8.02;2.53;;;;;;;;;;5046935;28;20328;-69
2023/07/11 00:12:01;;;;;;;6.47;2.75;;;;;;;;;;5029634;28;20028;-69
2023/07/11 00:14:27;;;;;;;8.65;2.72;;;;;;;;;;5049164;28;20044;-70
2023/07/11 00:16:54;;;;;;;6.85;2.70;;;;;;;;;;5032621;28;20532;-68
2023/07/11 00:19:21;;;;;;;7.97;3.17;;;;;;;;;;5047626;28;20040;-70
2023/07/11 00:21:47;;;;;;;5.53;3.30;;;;;;;;;;5023977;28;20314;-70
2023/07/11 00:24:14;;;;;;;11.65;3.10;;;;;;;;;;5040720;28;20120;-70
2023/07/11 00:26:40;;;;;;;12.90;3.08;;;;;;;;;;5029003;28;20021;-69
2023/07/11 00:29:19;;;;;;;10.35;2.70;;;;;;;;;;5029129;28;20044;-70
2023/07/11 00:31:45;;;;;;;8.25;3.00;;;;;;;;;;5043570;28;20032;-69
2023/07/11 00:34:11;;;;;;;9.07;2.92;;;;;;;;;;5047119;28;20100;-69
2023/07/11 00:36:37;;;;;;;4.47;2.67;;;;;;;;;;5012634;28;20041;-69
2023/07/11 00:39:04;;;;;;;9.05;2.97;;;;;;;;;;5044423;28;20061;-69
2023/07/11 00:41:31;;;;;;;6.07;2.80;;;;;;;;;;5037469;28;20029;-69
2023/07/11 00:43:58;;;;;;;9.25;2.97;;;;;;;;;;5027674;28;20037;-70
2023/07/11 00:46:25;;;;;;;9.68;3.90;;;;;;;;;;5025840;28;20051;-69
2023/07/11 00:48:55;;;;;;;9.57;3.35;;;;;;;;;;5041847;28;20295;-69
2023/07/11 00:51:30;;;;;;;8.20;2.97;;;;;;;;;;5043033;28;20485;-69
2023/07/11 00:53:57;;;;;;;7.43;3.22;;;;;;;;;;5039037;28;20032;-69
2023/07/11 00:56:26;;;;;;;6.32;3.47;;;;;;;;;;5037597;28;20053;-69
2023/07/11 00:58:54;;;;;;;11.43;3.28;;;;;;;;;;5022704;28;20032;-69
2023/07/11 01:01:20;;;;;;;12.27;3.05;;;;;;;;;;5043295;28;20030;-70
2023/07/11 01:03:47;;;;;;;6.18;2.70;;;;;;;;;;5044671;28;20171;-69
2023/07/11 01:06:16;;;;;;;8.70;3.03;;;;;;;;;;5030697;28;20051;-69
2023/07/11 01:08:43;;;;;;;8.07;3.22;;;;;;;;;;5052874;28;20017;-69
2023/07/11 01:11:09;;;;;;;7.45;2.92;;;;;;;;;;5051247;28;20021;-70
2023/07/11 01:13:36;;;;;;;8.07;3.17;;;;;;;;;;5050754;28;20094;-69
2023/07/11 01:16:03;;;;;;;9.52;3.10;;;;;;;;;;5051054;28;20035;-69
2023/07/11 01:18:31;;;;;;;6.75;3.40;;;;;;;;;;5050212;28;20029;-69
2023/07/11 01:20:57;;;;;;;12.65;4.05;;;;;;;;;;5034795;28;20029;-70
2023/07/11 01:23:23;;;;;;;7.03;2.88;;;;;;;;;;5050412;28;20025;-70
2023/07/11 01:25:49;;;;;;;6.90;3.20;;;;;;;;;;5050735;28;20021;-69
2023/07/11 01:28:18;;;;;;;9.43;3.40;;;;;;;;;;5032736;28;20386;-70
2023/07/11 01:30:44;;;;;;;4.78;2.88;;;;;;;;;;5048427;28;20021;-70
2023/07/11 01:33:12;;;;;;;6.72;3.20;;;;;;;;;;5035309;28;20071;-69
2023/07/11 01:35:38;;;;;;;12.00;3.20;;;;;;;;;;5033145;28;20029;-69
2023/07/11 01:38:04;;;;;;;6.20;3.20;;;;;;;;;;5052500;28;20071;-70
2023/07/11 01:40:31;;;;;;;6.35;3.85;;;;;;;;;;5050282;28;20036;-70
2023/07/11 01:42:58;;;;;;;6.97;3.58;;;;;;;;;;5034838;28;20029;-70
2023/07/11 01:45:25;;;;;;;11.95;3.55;;;;;;;;;;5050348;28;20112;-70
2023/07/11 01:47:53;;;;;;;8.20;3.28;;;;;;;;;;5054200;28;20481;-70
2023/07/11 01:50:19;;;;;;;6.80;3.55;;;;;;;;;;5051972;28;20033;-70
2023/07/11 01:52:45;;;;;;;6.53;3.08;;;;;;;;;;5048565;28;20123;-69
2023/07/11 01:55:12;;;;;;;10.35;3.60;;;;;;;;;;5031725;28;20060;-69
2023/07/11 01:57:38;;;;;;;8.18;3.58;;;;;;;;;;5034118;28;20029;-70
2023/07/11 02:00:07;;;;;;;10.20;3.53;;;;;;;;;;5034315;28;20063;-69
2023/07/11 02:02:33;;;;;;;10.27;4.20;;;;;;;;;;5051858;28;20041;-69
2023/07/11 02:04:59;;;;;;;6.55;3.50;;;;;;;;;;5032342;28;20044;-69
2023/07/11 02:07:26;;;;;;;8.57;3.30;;;;;;;;;;5052510;28;20037;-70
2023/07/11 02:09:52;;;;;;;8.75;3.55;;;;;;;;;;5032203;28;20507;-70
2023/07/11 02:12:18;;;;;;;6.25;3.70;;;;;;;;;;5048099;28;20056;-69
2023/07/11 02:14:46;;;;;;;10.75;4.03;;;;;;;;;;5030830;28;20370;-70
2023/07/11 02:17:14;;;;;;;9.75;3.78;;;;;;;;;;5031641;28;20040;-68
2023/07/11 02:19:41;;;;;;;8.35;3.70;;;;;;;;;;5015625;28;20037;-69
2023/07/11 02:22:08;;;;;;;8.93;3.55;;;;;;;;;;5031268;28;20063;-69
2023/07/11 02:24:34;;;;;;;9.32;3.40;;;;;;;;;;5033117;28;20045;-69
2023/07/11 02:27:00;;;;;;;7.00;3.08;;;;;;;;;;5034015;28;20047;-69
2023/07/11 02:29:26;;;;;;;7.38;3.10;;;;;;;;;;5054780;28;20029;-68
2023/07/11 02:31:53;;;;;;;10.63;3.63;;;;;;;;;;5039136;28;20017;-69
2023/07/11 02:34:19;;;;;;;12.57;3.10;;;;;;;;;;5042749;28;20046;-69
2023/07/11 02:36:45;;;;;;;8.75;3.70;;;;;;;;;;5048585;28;20058;-70
2023/07/11 02:39:12;;;;;;;8.10;3.10;;;;;;;;;;5041568;28;20090;-69
2023/07/11 02:41:41;;;;;;;7.80;3.10;;;;;;;;;;5039701;28;20044;-70
2023/07/11 02:44:07;;;;;;;9.00;3.53;;;;;;;;;;5035028;28;20029;-69
2023/07/11 02:46:33;;;;;;;9.93;3.30;;;;;;;;;;5032371;28;21237;-69
2023/07/11 02:49:00;;;;;;;7.80;3.58;;;;;;;;;;5048625;28;20021;-69
2023/07/11 02:51:26;;;;;;;11.60;3.70;;;;;;;;;;5051861;28;20028;-69
2023/07/11 02:53:52;;;;;;;5.28;3.30;;;;;;;;;;5048817;28;20028;-69
2023/07/11 02:56:18;;;;;;;9.35;3.42;;;;;;;;;;5049074;28;20033;-69
2023/07/11 02:58:45;;;;;;;7.22;3.25;;;;;;;;;;5030734;28;20047;-69
2023/07/11 03:01:11;;;;;;;5.75;2.90;;;;;;;;;;5045857;28;20052;-69
2023/07/11 03:03:37;;;;;;;11.18;3.88;;;;;;;;;;5045882;28;20020;-69
2023/07/11 03:06:04;;;;;;;9.05;4.00;;;;;;;;;;5048737;28;20386;-69
2023/07/11 03:08:32;;;;;;;8.45;4.32;;;;;;;;;;5029263;28;20157;-69
2023/07/11 03:10:59;;;;;;;9.52;3.95;;;;;;;;;;5046167;28;20290;-69
2023/07/11 03:13:25;;;;;;;5.57;3.60;;;;;;;;;;5034407;28;21241;-69
2023/07/11 03:15:52;;;;;;;8.23;4.32;;;;;;;;;;5015103;28;20029;-70
2023/07/11 03:18:18;;;;;;;9.35;3.70;;;;;;;;;;5035175;28;20112;-70
2023/07/11 03:20:44;;;;;;;10.57;4.13;;;;;;;;;;5048785;28;20037;-69
2023/07/11 03:23:12;;;;;;;7.70;4.47;;;;;;;;;;5048130;28;20528;-70
2023/07/11 03:25:39;;;;;;;9.90;4.18;;;;;;;;;;5032278;28;20032;-70
2023/07/11 03:28:05;;;;;;;8.80;3.75;;;;;;;;;;5051150;28;20381;-69
2023/07/11 03:30:32;;;;;;;8.70;4.38;;;;;;;;;;5032563;28;20033;-70
2023/07/11 03:32:58;;;;;;;8.32;4.53;;;;;;;;;;5045907;28;20438;-70
2023/07/11 03:35:24;;;;;;;7.70;4.50;;;;;;;;;;5048540;28;20079;-70
2023/07/11 03:37:50;;;;;;;7.60;4.13;;;;;;;;;;5049370;28;20096;-70
2023/07/11 03:40:16;;;;;;;12.73;5.32;;;;;;;;;;5054689;28;20043;-70
2023/07/11 03:42:43;;;;;;;12.73;4.65;;;;;;;;;;5052678;28;20551;-70
2023/07/11 03:45:09;;;;;;;11.98;5.38;;;;;;;;;;5031420;28;20048;-69
2023/07/11 03:47:35;;;;;;;14.52;5.03;;;;;;;;;;5036175;28;20039;-69
2023/07/11 03:50:01;;;;;;;11.85;4.80;;;;;;;;;;5038199;28;20032;-69
2023/07/11 03:52:27;;;;;;;13.02;4.95;;;;;;;;;;5017808;28;20478;-70
2023/07/11 03:54:54;;;;;;;14.90;5.43;;;;;;;;;;5033809;28;20029;-69
2023/07/11 03:57:20;;;;;;;9.63;4.60;;;;;;;;;;5055609;28;20056;-70
2023/07/11 03:59:46;;;;;;;8.48;4.63;;;;;;;;;;5060647;28;20092;-70
2023/07/11 04:02:12;;;;;;;9.55;4.55;;;;;;;;;;5037588;28;20032;-70
2023/07/11 04:04:38;;;;;;;14.30;4.95;;;;;;;;;;5038048;28;20009;-70
2023/07/11 04:07:05;;;;;;;16.77;5.60;;;;;;;;;;5039762;28;20016;-70
2023/07/11 04:09:31;;;;;;;8.38;4.72;;;;;;;;;;5031838;28;20102;-70
2023/07/11 04:11:57;;;;;;;10.57;5.22;;;;;;;;;;5031003;28;20036;-70
2023/07/11 04:14:23;;;;;;;10.45;5.15;;;;;;;;;;5031443;28;20364;-69
2023/07/11 04:16:49;;;;;;;8.80;4.63;;;;;;;;;;5052929;28;20037;-70
2023/07/11 04:19:16;;;;;;;13.15;4.68;;;;;;;;;;5032590;28;20036;-70
2023/07/11 04:21:42;;;;;;;13.70;5.45;;;;;;;;;;5043564;28;20037;-69
2023/07/11 04:24:08;;;;;;;11.10;4.97;;;;;;;;;;5044046;28;20041;-69
2023/07/11 04:26:34;;;;;;;10.43;5.22;;;;;;;;;;5030423;28;20044;-70
2023/07/11 04:29:01;;;;;;;14.90;5.57;;;;;;;;;;5051620;28;20529;-69
2023/07/11 04:31:27;;;;;;;8.55;5.13;;;;;;;;;;5035053;28;20025;-70
2023/07/11 04:33:53;;;;;;;19.92;6.53;;;;;;;;;;5033625;28;20055;-70
2023/07/11 04:36:19;;;;;;;15.45;6.47;;;;;;;;;;5058746;28;20332;-74
2023/07/11 04:38:45;;;;;;;13.30;6.57;;;;;;;;;;5061495;28;20669;-74
2023/07/11 04:41:12;;;;;;;12.40;5.47;;;;;;;;;;5040949;28;20128;-73
2023/07/11 04:43:40;;;;;;;11.43;5.97;;;;;;;;;;5054076;28;20043;-72
2023/07/11 04:46:07;;;;;;;12.65;6.13;;;;;;;;;;5041661;28;20410;-71
2023/07/11 04:48:33;;;;;;;10.13;7.35;;;;;;;;;;5055015;28;20282;-71
2023/07/11 04:51:02;;;;;;;14.68;7.53;;;;;;;;;;5055342;28;20017;-70
2023/07/11 04:53:29;;;;;;;15.65;7.40;;;;;;;;;;5055948;28;20118;-70
2023/07/11 04:55:58;;;;;;;14.27;6.68;;;;;;;;;;5059142;28;20017;-71
2023/07/11 04:58:25;;;;;;;11.55;7.22;;;;;;;;;;5055748;28;20021;-69
2023/07/11 05:00:52;;;;;;;16.55;7.65;;;;;;;;;;5050555;28;20132;-70
2023/07/11 05:03:18;;;;;;;13.68;7.25;;;;;;;;;;5052905;28;20017;-71
2023/07/11 05:05:44;;;;;;;17.55;8.45;;;;;;;;;;5056448;28;20040;-70
2023/07/11 05:08:10;;;;;;;14.30;8.23;;;;;;;;;;5054690;28;20374;-71
2023/07/11 05:10:36;;;;;;;14.77;8.00;;;;;;;;;;5034515;28;20068;-70
2023/07/11 05:13:02;;;;;;;22.55;8.63;;;;;;;;;;5023044;28;20119;-71
2023/07/11 05:15:28;;;;;;;17.25;9.00;;;;;;;;;;5041580;28;20033;-71
2023/07/11 05:17:54;;;;;;;13.98;9.10;;;;;;;;;;5059299;28;20033;-71
2023/07/11 05:20:21;;;;;;;15.48;9.25;;;;;;;;;;5061275;28;20019;-72
2023/07/11 05:22:47;;;;;;;18.05;10.20;;;;;;;;;;5041640;28;20036;-70
2023/07/11 05:25:13;;;;;;;15.48;10.02;;;;;;;;;;5040503;28;20052;-71
2023/07/11 05:27:39;;;;;;;17.13;10.77;;;;;;;;;;5034455;28;20032;-70
2023/07/11 05:30:06;;;;;;;24.30;10.60;;;;;;;;;;5051842;28;20036;-71
2023/07/11 05:32:32;;;;;;;14.80;9.68;;;;;;;;;;5053891;28;20120;-70
2023/07/11 05:34:58;;;;;;;19.45;11.02;;;;;;;;;;5032121;28;20044;-70
2023/07/11 05:37:25;;;;;;;23.23;10.57;;;;;;;;;;5036697;28;20037;-70
2023/07/11 05:39:51;;;;;;;20.48;11.23;;;;;;;;;;5056065;28;20029;-70
2023/07/11 05:42:17;;;;;;;19.40;11.30;;;;;;;;;;5036617;28;20118;-71
2023/07/11 05:44:43;;;;;;;21.60;11.32;;;;;;;;;;5053659;28;20033;-72
2023/07/11 05:47:09;;;;;;;18.15;10.07;;;;;;;;;;5058395;28;20059;-70
2023/07/11 05:49:35;;;;;;;16.33;9.57;;;;;;;;;;5045493;28;20029;-70
2023/07/11 05:52:01;;;;;;;15.15;9.25;;;;;;;;;;5050824;28;20096;-70
2023/07/11 05:54:27;;;;;;;15.95;9.70;;;;;;;;;;5056680;28;20132;-69
2023/07/11 05:56:54;;;;;;;23.80;9.93;;;;;;;;;;5060031;28;20033;-70
2023/07/11 05:59:20;;;;;;;15.68;9.48;;;;;;;;;;5040637;28;20033;-73
2023/07/11 06:01:46;;;;;;;16.00;8.52;;;;;;;;;;5038047;28;20320;-70
2023/07/11 06:04:13;;;;;;;20.95;8.30;;;;;;;;;;5055468;28;20270;-70
2023/07/11 06:06:43;;;;;;;15.45;7.97;;;;;;;;;;5053948;28;20020;-73
2023/07/11 06:09:14;;;;;;;12.65;7.25;;;;;;;;;;5048858;28;20120;-69
2023/07/11 06:11:40;;;;;;;14.20;7.50;;;;;;;;;;5047066;28;20032;-69
2023/07/11 06:14:07;;;;;;;17.17;7.90;;;;;;;;;;5049248;28;20143;-69
2023/07/11 06:16:33;;;;;;;11.45;6.97;;;;;;;;;;5051255;28;20376;-69
2023/07/11 06:18:59;;;;;;;11.88;7.38;;;;;;;;;;5051229;28;20029;-69
2023/07/11 06:21:25;;;;;;;14.90;7.10;;;;;;;;;;5051142;28;20512;-70
2023/07/11 06:23:51;;;;;;;14.00;7.05;;;;;;;;;;5051348;28;20036;-69
2023/07/11 06:26:18;;;;;;;16.52;7.10;;;;;;;;;;5051450;28;20460;-71
2023/07/11 06:28:44;;;;;;;10.75;6.22;;;;;;;;;;5050922;28;20041;-70
2023/07/11 06:31:11;;;;;;;15.20;6.97;;;;;;;;;;5050786;28;20040;-69
2023/07/11 06:33:37;;;;;;;15.85;6.53;;;;;;;;;;5052977;28;20021;-69
2023/07/11 06:36:05;;;;;;;9.25;6.25;;;;;;;;;;5053311;28;20036;-70
2023/07/11 06:38:31;;;;;;;17.15;6.85;;;;;;;;;;5051789;28;20509;-70
2023/07/11 06:40:58;;;;;;;9.93;5.60;;;;;;;;;;5052247;28;20021;-69
2023/07/11 06:43:25;;;;;;;16.13;5.88;;;;;;;;;;5035479;28;20033;-71
2023/07/11 06:45:55;;;;;;;12.48;5.47;;;;;;;;;;5053173;28;20103;-72
2023/07/11 06:48:22;;;;;;;12.10;4.63;;;;;;;;;;5051562;28;20028;-69
2023/07/11 06:50:53;;;;;;;9.68;5.07;;;;;;;;;;5047394;28;20498;-69
2023/07/11 06:53:19;;;;;;;14.60;5.18;;;;;;;;;;5054067;28;20029;-70
2023/07/11 06:55:50;;;;;;;17.63;4.10;;;;;;;;;;5052002;28;20017;-70
2023/07/11 06:58:16;;;;;;;16.13;4.22;;;;;;;;;;5051255;28;20036;-70
2023/07/11 07:00:43;;;;;;;13.57;3.40;;;;;;;;;;5044962;28;20064;-70
2023/07/11 07:03:13;;;;;;;10.73;3.35;;;;;;;;;;5050041;28;20029;-70
2023/07/11 07:05:47;;;;;;;12.40;3.78;;;;;;;;;;5053981;28;20057;-69
2023/07/11 07:08:13;;;;;;;13.18;3.83;;;;;;;;;;5034050;28;20036;-69
2023/07/11 07:10:39;;;;;;;9.15;3.20;;;;;;;;;;5053729;28;20036;-70
2023/07/11 07:13:05;;;;;;;9.85;3.15;;;;;;;;;;5038174;28;20195;-69
2023/07/11 07:15:32;;;;;;;9.95;3.25;;;;;;;;;;5058175;28;20538;-68
2023/07/11 07:17:58;;;;;;;9.98;3.05;;;;;;;;;;5057009;28;20102;-70
2023/07/11 07:20:24;;;;;;;7.82;2.70;;;;;;;;;;5054721;28;20055;-69
2023/07/11 07:22:50;;;;;;;9.00;3.25;;;;;;;;;;5050051;28;20100;-69
2023/07/11 07:25:16;;;;;;;8.48;3.03;;;;;;;;;;5047719;28;20048;-69
2023/07/11 07:27:42;;;;;;;10.80;3.20;;;;;;;;;;5031994;28;20115;-70
2023/07/11 07:30:10;;;;;;;8.95;2.80;;;;;;;;;;5030865;28;20051;-70
2023/07/11 07:32:37;;;;;;;12.10;3.30;;;;;;;;;;5032419;28;20029;-70
2023/07/11 07:35:03;;;;;;;10.70;3.30;;;;;;;;;;5031942;28;20036;-69
2023/07/11 07:37:29;;;;;;;8.82;2.63;;;;;;;;;;5050294;28;20041;-71
2023/07/11 07:39:55;;;;;;;11.07;2.70;;;;;;;;;;5050494;28;20029;-69
2023/07/11 07:42:22;;;;;;;8.77;2.95;;;;;;;;;;5049402;28;20043;-69
2023/07/11 07:44:49;;;;;;;10.02;2.97;;;;;;;;;;5014641;28;20461;-70
2023/07/11 07:47:15;;;;;;;12.70;2.88;;;;;;;;;;5049743;28;20036;-70
2023/07/11 07:49:41;;;;;;;13.57;3.22;;;;;;;;;;5054924;28;20063;-70
2023/07/11 07:52:07;;;;;;;7.82;2.63;;;;;;;;;;5054886;28;20021;-68
2023/07/11 07:54:34;;;;;;;12.85;2.60;;;;;;;;;;5054779;28;20037;-70
2023/07/11 07:57:00;;;;;;;8.32;3.38;;;;;;;;;;5054009;28;20032;-70
2023/07/11 07:59:26;;;;;;;7.45;2.58;;;;;;;;;;5034494;28;20198;-70
2023/07/11 08:01:52;;;;;;;7.90;2.90;;;;;;;;;;5031171;28;20616;-71
2023/07/11 08:04:18;;;;;;;8.35;2.72;;;;;;;;;;5054117;28;20188;-69
2023/07/11 08:06:44;;;;;;;17.83;2.72;;;;;;;;;;5051880;28;20033;-70
2023/07/11 08:09:11;;;;;;;12.45;2.72;;;;;;;;;;5038578;28;20510;-70
2023/07/11 08:11:37;;;;;;;8.85;2.80;;;;;;;;;;5051198;28;20036;-69
2023/07/11 08:14:03;;;;;;;11.32;3.25;;;;;;;;;;5051259;28;20045;-69
2023/07/11 08:16:31;;;;;;;14.13;3.50;;;;;;;;;;5050946;28;20032;-70
2023/07/11 08:18:57;;;;;;;9.50;3.10;;;;;;;;;;5051584;28;20041;-70
2023/07/11 08:21:23;;;;;;;13.57;2.88;;;;;;;;;;5043722;28;20041;-70
2023/07/11 08:23:50;;;;;;;13.07;3.58;;;;;;;;;;5043287;28;20025;-70
2023/07/11 08:26:16;;;;;;;9.30;2.75;;;;;;;;;;5044302;28;20032;-69
2023/07/11 08:28:42;;;;;;;14.25;2.90;;;;;;;;;;5038288;28;20063;-69
2023/07/11 08:31:08;;;;;;;8.00;3.20;;;;;;;;;;5055094;28;20059;-70
2023/07/11 08:33:34;;;;;;;12.30;3.15;;;;;;;;;;5043661;28;20027;-71
2023/07/11 08:36:00;;;;;;;15.75;3.53;;;;;;;;;;5050760;28;20036;-69
2023/07/11 08:38:26;;;;;;;14.13;3.17;;;;;;;;;;5032668;28;20041;-69
2023/07/11 08:40:53;;;;;;;12.27;2.90;;;;;;;;;;5048616;28;20087;-70
2023/07/11 08:43:22;;;;;;;11.77;3.70;;;;;;;;;;5050428;28;20041;-69
2023/07/11 08:45:54;;;;;;;7.70;2.97;;;;;;;;;;5049741;28;20090;-70
2023/07/11 08:48:26;;;;;;;17.20;3.30;;;;;;;;;;5049665;28;20033;-69
2023/07/11 08:51:00;;;;;;;9.52;3.20;;;;;;;;;;5050440;28;20025;-70
2023/07/11 08:53:41;;;;;;;22.38;3.50;;;;;;;;;;5049898;28;20021;-70
2023/07/11 08:56:30;;;;;;;11.82;3.42;;;;;;;;;;5050309;28;20394;-70
2023/07/11 08:58:58;;;;;;;10.50;3.38;;;;;;;;;;5041054;28;20099;-70
2023/07/11 09:01:34;;;;;;;8.82;3.10;;;;;;;;;;5051198;28;20064;-72
2023/07/11 09:04:01;;;;;;;20.70;4.80;;;;;;;;;;5053007;28;20048;-70
2023/07/11 09:06:33;;;;;;;10.65;3.65;;;;;;;;;;5053234;28;20045;-70
2023/07/11 09:09:00;;;;;;;8.43;2.95;;;;;;;;;;5049791;28;20493;-70
2023/07/11 09:11:44;;;;;;;87.32;6.28;;;;;;;;;;5049480;28;20702;-70
2023/07/11 09:14:29;;;;;;;10.88;2.83;;;;;;;;;;5049677;28;20041;-70
2023/07/11 09:17:15;;;;;;;13.00;3.33;;;;;;;;;;5048004;28;20119;-70
2023/07/11 09:20:06;;;;;;;10.68;2.63;;;;;;;;;;5035834;28;20048;-70
2023/07/11 09:22:43;;;;;;;8.80;3.10;;;;;;;;;;5050902;28;20311;-71
2023/07/11 09:25:28;;;;;;;18.52;2.85;;;;;;;;;;5053206;28;20094;-70
2023/07/11 09:27:57;;;;;;;15.85;2.97;;;;;;;;;;5034876;28;20040;-69
2023/07/11 09:30:37;;;;;;;16.98;2.90;;;;;;;;;;5053556;28;20055;-70
2023/07/11 09:33:12;;;;;;;17.83;3.00;;;;;;;;;;5053404;28;20029;-69
2023/07/11 09:35:38;;;;;;;46.13;4.90;;;;;;;;;;5053859;28;20062;-70
2023/07/11 09:38:07;;;;;;;13.75;2.85;;;;;;;;;;5053431;28;20112;-70
2023/07/11 09:40:39;;;;;;;12.85;3.00;;;;;;;;;;5053535;28;20111;-70
2023/07/11 09:43:07;;;;;;;22.60;3.33;;;;;;;;;;5053614;28;20174;-68
2023/07/11 09:45:35;;;;;;;41.92;4.22;;;;;;;;;;5051374;28;20048;-70
2023/07/11 09:48:10;;;;;;;19.48;2.70;;;;;;;;;;5052231;28;20051;-71
2023/07/11 09:50:55;;;;;;;8.23;2.80;;;;;;;;;;5052592;28;20032;-70
2023/07/11 09:53:28;;;;;;;24.48;3.85;;;;;;;;;;5051637;28;20033;-70
2023/07/11 09:55:55;;;;;;;9.32;2.40;;;;;;;;;;5052515;28;20052;-70
2023/07/11 09:58:21;;;;;;;16.10;3.83;;;;;;;;;;5050347;28;20389;-70
2023/07/11 10:00:48;;;;;;;17.08;3.50;;;;;;;;;;5034689;28;20055;-70
2023/07/11 10:03:18;;;;;;;12.10;3.65;;;;;;;;;;5052174;28;20025;-70
2023/07/11 10:05:45;;;;;;;17.58;3.75;;;;;;;;;;5052413;28;20045;-70
2023/07/11 10:08:16;;;;;;;7.88;3.20;;;;;;;;;;5052514;28;20033;-70
2023/07/11 10:10:50;;;;;;;16.27;3.10;;;;;;;;;;5051733;28;20083;-70
2023/07/11 10:13:17;;;;;;;12.75;3.25;;;;;;;;;;5052220;28;20039;-70
2023/07/11 10:15:43;;;;;;;19.02;3.88;;;;;;;;;;5051891;28;20552;-69
2023/07/11 10:18:17;;;;;;;9.60;2.40;;;;;;;;;;5050828;28;20033;-71
2023/07/11 10:20:44;;;;;;;15.00;3.55;;;;;;;;;;5044334;28;20034;-70
2023/07/11 10:23:11;;;;;;;7.18;2.53;;;;;;;;;;5014692;28;20029;-69
2023/07/11 10:25:37;;;;;;;13.77;2.88;;;;;;;;;;5043746;28;20697;-70
2023/07/11 10:28:05;;;;;;;8.88;2.42;;;;;;;;;;5050422;28;20037;-71
2023/07/11 10:30:34;;;;;;;9.95;3.00;;;;;;;;;;5049970;28;20025;-69
2023/07/11 10:33:16;;;;;;;11.45;3.03;;;;;;;;;;5049604;28;20516;-70
2023/07/11 10:35:42;;;;;;;8.00;2.95;;;;;;;;;;5049469;28;20508;-71
2023/07/11 10:38:20;;;;;;;11.93;2.65;;;;;;;;;;5052228;28;20033;-70
2023/07/11 10:40:49;;;;;;;12.13;3.28;;;;;;;;;;5050780;28;20033;-70
2023/07/11 10:43:26;;;;;;;9.57;2.88;;;;;;;;;;5046879;28;20043;-70
2023/07/11 10:45:56;;;;;;;10.55;2.83;;;;;;;;;;5046894;28;20136;-69
2023/07/11 10:48:22;;;;;;;11.90;3.10;;;;;;;;;;5053650;28;20032;-69
2023/07/11 10:50:50;;;;;;;17.13;3.92;;;;;;;;;;5050971;28;20063;-70
2023/07/11 10:53:37;;;;;;;15.00;3.03;;;;;;;;;;5049289;28;20033;-70
2023/07/11 10:56:07;;;;;;;16.98;3.10;;;;;;;;;;5030383;28;20031;-69
2023/07/11 10:58:34;;;;;;;13.75;3.72;;;;;;;;;;5051548;28;20124;-70
2023/07/11 11:01:18;;;;;;;16.77;3.35;;;;;;;;;;5049068;28;20033;-71
2023/07/11 11:03:46;;;;;;;13.15;3.00;;;;;;;;;;5049003;28;20029;-70
2023/07/11 11:06:16;;;;;;;11.70;3.10;;;;;;;;;;5049157;28;20044;-70
2023/07/11 11:08:48;;;;;;;8.52;2.72;;;;;;;;;;5051070;28;20025;-71
2023/07/11 11:11:35;;;;;;;11.10;2.90;;;;;;;;;;5050780;28;20025;-70
2023/07/11 11:14:06;;;;;;;15.00;3.17;;;;;;;;;;5031186;28;20037;-71
2023/07/11 11:16:34;;;;;;;106.70;9.15;;;;;;;;;;5049109;28;20036;-70
2023/07/11 11:19:13;;;;;;;16.65;4.68;;;;;;;;;;5052439;28;20103;-69
2023/07/11 11:22:00;;;;;;;26.35;5.30;;;;;;;;;;5036353;28;20494;-69
2023/07/11 11:24:38;;;;;;;10.95;3.38;;;;;;;;;;5045710;28;20032;-69
2023/07/11 11:27:11;;;;;;;22.20;3.90;;;;;;;;;;5045878;28;20038;-70
2023/07/11 11:30:01;;;;;;;13.20;3.72;;;;;;;;;;5033809;28;20082;-70
2023/07/11 11:32:37;;;;;;;11.13;3.58;;;;;;;;;;5046016;28;20025;-70
2023/07/11 11:35:06;;;;;;;8.57;3.10;;;;;;;;;;5056325;28;20033;-70
2023/07/11 11:37:38;;;;;;;11.73;3.63;;;;;;;;;;5043017;28;20040;-70
2023/07/11 11:40:16;;;;;;;8.68;3.47;;;;;;;;;;5028573;28;20025;-70
2023/07/11 11:42:44;;;;;;;10.35;3.40;;;;;;;;;;5049381;28;20021;-70
2023/07/11 11:45:21;;;;;;;12.85;3.92;;;;;;;;;;5031103;28;20094;-68
2023/07/11 11:47:48;;;;;;;12.75;3.50;;;;;;;;;;5048466;28;20102;-68
2023/07/11 11:50:15;;;;;;;8.30;3.05;;;;;;;;;;5048169;28;21064;-70
2023/07/11 11:52:44;;;;;;;9.00;3.20;;;;;;;;;;5050816;28;20021;-69
2023/07/11 11:55:25;;;;;;;10.48;3.55;;;;;;;;;;5055762;28;20370;-69
2023/07/11 11:57:52;;;;;;;11.50;4.28;;;;;;;;;;5040807;28;20033;-70
2023/07/11 12:00:35;;;;;;;15.65;3.85;;;;;;;;;;5052087;28;20504;-70
2023/07/11 12:03:01;;;;;;;9.75;3.53;;;;;;;;;;5049921;28;20094;-69
2023/07/11 12:05:27;;;;;;;8.38;3.10;;;;;;;;;;5045979;28;20029;-69
2023/07/11 12:08:12;;;;;;;8.98;3.25;;;;;;;;;;5028667;28;20033;-68
2023/07/11 12:10:38;;;;;;;10.05;3.63;;;;;;;;;;5031416;28;20017;-70
2023/07/11 12:13:27;;;;;;;12.77;3.72;;;;;;;;;;5033235;28;20525;-70
2023/07/11 12:15:54;;;;;;;9.25;3.55;;;;;;;;;;5046340;28;20025;-68
2023/07/11 12:18:26;;;;;;;6.30;2.92;;;;;;;;;;5049905;28;20024;-69
2023/07/11 12:21:24;;;;;;;10.48;3.30;;;;;;;;;;5029546;28;20040;-69
2023/07/11 12:23:52;;;;;;;10.80;2.92;;;;;;;;;;5016001;28;20074;-71
2023/07/11 12:26:25;;;;;;;8.73;4.05;;;;;;;;;;5039909;28;20055;-69
2023/07/11 12:28:52;;;;;;;7.72;3.22;;;;;;;;;;5043757;28;20025;-68
2023/07/11 12:31:23;;;;;;;13.63;3.58;;;;;;;;;;5047735;28;20032;-69
2023/07/11 12:34:02;;;;;;;12.30;3.55;;;;;;;;;;5047744;28;20041;-69
2023/07/11 12:36:28;;;;;;;49.63;6.75;;;;;;;;;;5043476;28;20020;-69
2023/07/11 12:39:09;;;;;;;9.63;3.33;;;;;;;;;;5038590;28;20025;-70
2023/07/11 12:41:54;;;;;;;8.45;3.42;;;;;;;;;;5039541;28;20035;-69
2023/07/11 12:44:20;;;;;;;13.82;4.25;;;;;;;;;;5047409;28;20029;-68
2023/07/11 12:46:48;;;;;;;12.38;3.45;;;;;;;;;;5053792;28;20112;-69
2023/07/11 12:49:19;;;;;;;10.45;3.40;;;;;;;;;;5047315;28;20521;-69
2023/07/11 12:51:45;;;;;;;10.43;3.85;;;;;;;;;;5045687;28;20029;-69
2023/07/11 12:54:11;;;;;;;9.32;3.40;;;;;;;;;;5046296;28;20029;-68
2023/07/11 12:56:42;;;;;;;9.57;3.90;;;;;;;;;;5046991;28;20055;-68
2023/07/11 12:59:39;;;;;;;12.80;3.65;;;;;;;;;;5050454;28;20029;-68
2023/07/11 13:02:06;;;;;;;11.52;4.03;;;;;;;;;;5035861;28;20037;-69
2023/07/11 13:04:37;;;;;;;12.82;3.42;;;;;;;;;;5046879;28;20062;-68
2023/07/11 13:07:04;;;;;;;11.65;3.88;;;;;;;;;;5052391;28;20029;-68
2023/07/11 13:09:42;;;;;;;9.95;3.63;;;;;;;;;;5054631;28;20029;-69
2023/07/11 13:12:12;;;;;;;9.70;3.83;;;;;;;;;;5051133;28;20088;-68
2023/07/11 13:14:41;;;;;;;17.25;4.28;;;;;;;;;;5052799;28;20506;-68
2023/07/11 13:17:09;;;;;;;11.75;4.28;;;;;;;;;;5032782;28;20033;-69
2023/07/11 13:19:35;;;;;;;10.57;3.63;;;;;;;;;;5051139;28;20021;-69
2023/07/11 13:22:01;;;;;;;8.05;4.13;;;;;;;;;;5032817;28;20104;-69
2023/07/11 13:24:28;;;;;;;8.57;3.72;;;;;;;;;;5036599;28;20486;-69
2023/07/11 13:26:59;;;;;;;9.13;4.18;;;;;;;;;;5047197;28;20044;-70
2023/07/11 13:29:25;;;;;;;17.10;3.90;;;;;;;;;;5032222;28;20021;-70
2023/07/11 13:32:02;;;;;;;12.98;3.65;;;;;;;;;;5033391;28;20025;-69
2023/07/11 13:34:29;;;;;;;11.85;4.03;;;;;;;;;;5046273;28;20021;-68
2023/07/11 13:36:55;;;;;;;15.18;3.72;;;;;;;;;;5051546;28;20025;-69
2023/07/11 13:39:25;;;;;;;17.00;3.88;;;;;;;;;;5051731;28;20033;-70
2023/07/11 13:41:54;;;;;;;10.57;4.18;;;;;;;;;;5051992;28;20033;-69
2023/07/11 13:44:29;;;;;;;11.37;3.77;;;;;;;;;;5049993;28;20498;-69
2023/07/11 13:46:55;;;;;;;11.60;3.67;;;;;;;;;;5048425;28;20025;-69
2023/07/11 13:49:21;;;;;;;8.73;3.40;;;;;;;;;;5049041;28;20063;-67
2023/07/11 13:51:47;;;;;;;14.95;3.78;;;;;;;;;;5049079;28;20029;-69
2023/07/11 13:54:17;;;;;;;8.95;3.65;;;;;;;;;;5047928;28;20469;-70
2023/07/11 13:56:43;;;;;;;10.48;3.65;;;;;;;;;;5049116;28;20040;-69
2023/07/11 13:59:10;;;;;;;9.82;4.05;;;;;;;;;;5049827;28;20762;-68
2023/07/11 14:01:37;;;;;;;7.40;3.47;;;;;;;;;;5049538;28;20029;-68
2023/07/11 14:04:09;;;;;;;13.10;3.95;;;;;;;;;;5044990;28;20037;-69
2023/07/11 14:06:35;;;;;;;11.00;3.33;;;;;;;;;;5031754;28;20037;-70
2023/07/11 14:09:02;;;;;;;10.32;3.15;;;;;;;;;;5033298;28;20045;-69
2023/07/11 14:11:29;;;;;;;6.28;3.17;;;;;;;;;;5048518;28;20077;-68
2023/07/11 14:13:55;;;;;;;9.27;3.25;;;;;;;;;;5034941;28;20033;-68
2023/07/11 14:16:22;;;;;;;10.23;3.38;;;;;;;;;;5049138;28;20083;-69
2023/07/11 14:18:49;;;;;;;10.25;3.38;;;;;;;;;;5051318;28;20172;-71
2023/07/11 14:21:19;;;;;;;11.27;2.88;;;;;;;;;;5046171;28;20466;-69
2023/07/11 14:23:45;;;;;;;;;;;;;;;;;;5051551;28;20068;-69
2023/07/11 14:26:11;;;;;;;9.90;3.40;;;;;;;;;;5048439;28;20735;-68
2023/07/11 14:28:38;;;;;;;14.48;3.78;;;;;;;;;;5043041;28;20033;-69
2023/07/11 14:31:13;;;;;;;8.32;2.90;;;;;;;;;;5050420;28;20075;-70
2023/07/11 14:33:40;;;;;;;12.07;3.28;;;;;;;;;;5051861;28;20040;-69
2023/07/11 14:36:06;;;;;;;8.30;3.17;;;;;;;;;;5028554;28;20029;-70
2023/07/11 14:38:32;;;;;;;11.27;3.30;;;;;;;;;;5046802;28;20033;-68
2023/07/11 14:40:58;;;;;;;9.82;3.05;;;;;;;;;;5029960;28;20035;-68
2023/07/11 14:43:26;;;;;;;10.38;2.95;;;;;;;;;;5049418;28;20123;-68
2023/07/11 14:45:52;;;;;;;9.15;3.20;;;;;;;;;;5047266;28;20037;-69